Time;durP1;ratioP1;P1;durP2;ratioP2;P2;SDS_P1;SDS_P2;PMS_P1;PMS_P2;Temp;Humidity;BMP_temperature;BMP_pressure;BME280_temperature;BME280_humidity;BME280_pressure;Samples;Min_cycle;Max_cycle;Signal;HPM_P1;HPM_P2
2022/10/18 00:00:28;;;;;;;0.30;0.30;;;;;;;;;;7381445;19;20512;-71
2022/10/18 00:02:53;;;;;;;0.22;0.22;;;;;;;;;;7378224;19;20117;-71
2022/10/18 00:05:19;;;;;;;0.30;0.30;;;;;;;;;;7370045;19;20646;-69
2022/10/18 00:07:44;;;;;;;0.32;0.32;;;;;;;;;;7381230;19;20129;-71
2022/10/18 00:10:09;;;;;;;0.30;0.30;;;;;;;;;;7376500;19;20129;-70
2022/10/18 00:12:35;;;;;;;0.30;0.30;;;;;;;;;;7371864;19;20528;-71
2022/10/18 00:15:02;;;;;;;0.30;0.30;;;;;;;;;;7376292;19;20169;-72
2022/10/18 00:17:27;;;;;;;0.55;0.55;;;;;;;;;;7374600;19;20155;-73
2022/10/18 00:19:52;;;;;;;0.35;0.35;;;;;;;;;;7376928;19;20113;-71
2022/10/18 00:22:18;;;;;;;0.30;0.30;;;;;;;;;;7381473;19;20619;-71
2022/10/18 00:24:43;;;;;;;0.40;0.40;;;;;;;;;;7372088;19;20148;-71
2022/10/18 00:27:08;;;;;;;0.30;0.30;;;;;;;;;;7369269;19;20144;-70
2022/10/18 00:29:34;;;;;;;0.30;0.30;;;;;;;;;;7361334;19;20141;-70
2022/10/18 00:31:59;;;;;;;0.30;0.30;;;;;;;;;;7366516;19;20125;-71
2022/10/18 00:34:24;;;;;;;0.30;0.30;;;;;;;;;;7382086;19;20179;-71
2022/10/18 00:36:49;;;;;;;0.30;0.30;;;;;;;;;;7386394;19;20125;-69
2022/10/18 00:39:17;;;;;;;0.30;0.30;;;;;;;;;;7388739;19;20117;-71
2022/10/18 00:41:43;;;;;;;0.30;0.30;;;;;;;;;;7385795;19;20615;-70
2022/10/18 00:44:11;;;;;;;0.30;0.30;;;;;;;;;;7385004;19;20155;-71
2022/10/18 00:46:44;;;;;;;0.50;0.50;;;;;;;;;;7388072;19;20133;-71
2022/10/18 00:49:49;;;;;;;0.65;0.65;;;;;;;;;;7385181;19;20140;-69
2022/10/18 00:52:18;;;;;;;0.30;0.30;;;;;;;;;;7389283;19;20144;-71
2022/10/18 00:54:45;;;;;;;0.30;0.30;;;;;;;;;;7393206;19;20168;-73
2022/10/18 00:57:12;;;;;;;1.75;1.65;;;;;;;;;;7393795;19;20157;-74
2022/10/18 00:59:37;;;;;;;0.30;0.30;;;;;;;;;;7393512;19;20152;-74
2022/10/18 01:02:03;;;;;;;0.30;0.30;;;;;;;;;;7395342;19;20125;-73
2022/10/18 01:04:28;;;;;;;0.30;0.30;;;;;;;;;;7394130;19;20498;-73
2022/10/18 01:07:39;;;;;;;0.30;0.30;;;;;;;;;;7395074;19;20133;-73
2022/10/18 01:10:39;;;;;;;0.30;0.30;;;;;;;;;;7393026;19;20156;-70
2022/10/18 01:13:43;;;;;;;0.30;0.30;;;;;;;;;;7393623;19;20144;-69
2022/10/18 01:16:19;;;;;;;0.40;0.40;;;;;;;;;;7393323;19;20179;-70
2022/10/18 01:18:59;;;;;;;0.30;0.30;;;;;;;;;;7394078;19;20149;-71
2022/10/18 01:22:02;;;;;;;0.35;0.35;;;;;;;;;;7393128;19;20630;-71
2022/10/18 01:24:36;;;;;;;0.30;0.30;;;;;;;;;;7395166;19;20216;-72
2022/10/18 01:27:20;;;;;;;0.50;0.50;;;;;;;;;;7395074;19;20164;-71
2022/10/18 01:30:24;;;;;;;0.30;0.30;;;;;;;;;;7392209;19;20148;-71
2022/10/18 01:32:57;;;;;;;0.30;0.30;;;;;;;;;;7395302;19;20556;-71
2022/10/18 01:35:29;;;;;;;0.30;0.30;;;;;;;;;;7392992;19;20147;-72
2022/10/18 01:37:58;;;;;;;0.30;0.30;;;;;;;;;;7394748;19;20618;-71
2022/10/18 01:40:23;;;;;;;0.30;0.30;;;;;;;;;;7393653;19;20846;-71
2022/10/18 01:42:49;;;;;;;0.30;0.30;;;;;;;;;;7394223;19;20133;-71
2022/10/18 01:45:15;;;;;;;0.30;0.30;;;;;;;;;;7392098;19;20174;-71
2022/10/18 01:47:43;;;;;;;0.30;0.30;;;;;;;;;;7394045;19;20208;-71
2022/10/18 01:50:09;;;;;;;0.20;0.20;;;;;;;;;;7390468;19;20168;-71
2022/10/18 01:52:34;;;;;;;0.20;0.20;;;;;;;;;;7394519;19;20140;-71
2022/10/18 01:55:00;;;;;;;0.30;0.30;;;;;;;;;;7394123;19;20555;-72
2022/10/18 01:57:41;;;;;;;0.30;0.30;;;;;;;;;;7394085;19;20125;-71
2022/10/18 02:00:16;;;;;;;0.40;0.40;;;;;;;;;;7392153;19;20133;-71
2022/10/18 02:02:48;;;;;;;0.30;0.30;;;;;;;;;;7391579;19;20228;-71
2022/10/18 02:05:34;;;;;;;0.30;0.30;;;;;;;;;;7393168;19;20149;-71
2022/10/18 02:08:06;;;;;;;0.30;0.30;;;;;;;;;;7392825;19;20678;-71
2022/10/18 02:10:40;;;;;;;0.30;0.30;;;;;;;;;;7389522;19;20133;-72
2022/10/18 02:13:06;;;;;;;0.30;0.30;;;;;;;;;;7384110;19;20155;-74
2022/10/18 02:15:34;;;;;;;0.30;0.30;;;;;;;;;;7390884;19;20212;-73
2022/10/18 02:18:01;;;;;;;0.30;0.30;;;;;;;;;;7393935;19;20674;-73
2022/10/18 02:20:28;;;;;;;0.73;0.73;;;;;;;;;;7390965;19;20205;-74
2022/10/18 02:22:54;;;;;;;0.30;0.30;;;;;;;;;;7392608;19;20148;-73
2022/10/18 02:25:23;;;;;;;0.30;0.30;;;;;;;;;;7390943;19;20216;-74
2022/10/18 02:27:48;;;;;;;0.30;0.30;;;;;;;;;;7392696;19;20591;-74
2022/10/18 02:30:14;;;;;;;0.30;0.30;;;;;;;;;;7389738;19;20137;-75
2022/10/18 02:32:49;;;;;;;0.70;0.63;;;;;;;;;;7391466;19;20137;-74
2022/10/18 02:35:30;;;;;;;0.20;0.20;;;;;;;;;;7391558;19;20496;-74
2022/10/18 02:37:57;;;;;;;0.30;0.30;;;;;;;;;;7392665;19;20603;-74
2022/10/18 02:40:22;;;;;;;0.73;0.73;;;;;;;;;;7390813;19;20612;-74
2022/10/18 02:42:50;;;;;;;0.65;0.65;;;;;;;;;;7392777;19;20137;-74
2022/10/18 02:45:15;;;;;;;0.30;0.30;;;;;;;;;;7390177;19;20240;-73
2022/10/18 02:47:41;;;;;;;0.30;0.30;;;;;;;;;;7391950;19;20169;-74
2022/10/18 02:50:06;;;;;;;0.30;0.30;;;;;;;;;;7389345;19;20117;-72
2022/10/18 02:52:32;;;;;;;0.30;0.30;;;;;;;;;;7391816;19;20140;-73
2022/10/18 02:54:57;;;;;;;0.38;0.38;;;;;;;;;;7393074;19;20148;-74
2022/10/18 02:57:22;;;;;;;0.30;0.30;;;;;;;;;;7385604;19;20117;-74
2022/10/18 02:59:48;;;;;;;0.30;0.30;;;;;;;;;;7386820;19;20526;-74
2022/10/18 03:02:13;;;;;;;0.30;0.30;;;;;;;;;;7389325;19;20136;-73
2022/10/18 03:04:38;;;;;;;0.30;0.30;;;;;;;;;;7387062;19;20168;-72
2022/10/18 03:07:04;;;;;;;0.30;0.30;;;;;;;;;;7390689;19;20168;-74
2022/10/18 03:09:29;;;;;;;0.60;0.60;;;;;;;;;;7388168;19;20158;-74
2022/10/18 03:11:54;;;;;;;0.30;0.30;;;;;;;;;;7387799;19;20140;-74
2022/10/18 03:14:19;;;;;;;0.20;0.20;;;;;;;;;;7385286;19;20136;-74
2022/10/18 03:16:45;;;;;;;0.30;0.30;;;;;;;;;;7387132;19;20129;-72
2022/10/18 03:19:10;;;;;;;0.30;0.30;;;;;;;;;;7388305;19;20172;-74
2022/10/18 03:21:35;;;;;;;0.30;0.30;;;;;;;;;;7386353;19;20137;-74
2022/10/18 03:24:01;;;;;;;0.30;0.30;;;;;;;;;;7387353;19;20153;-74
2022/10/18 03:26:26;;;;;;;0.30;0.30;;;;;;;;;;7388806;19;20133;-74
2022/10/18 03:28:52;;;;;;;0.30;0.30;;;;;;;;;;7388364;19;20125;-74
2022/10/18 03:31:17;;;;;;;0.30;0.30;;;;;;;;;;7386721;19;20541;-74
2022/10/18 03:33:42;;;;;;;0.30;0.30;;;;;;;;;;7389369;19;20137;-74
2022/10/18 03:36:08;;;;;;;0.30;0.30;;;;;;;;;;7388430;19;20180;-74
2022/10/18 03:38:33;;;;;;;0.30;0.30;;;;;;;;;;7388782;19;20521;-74
2022/10/18 03:40:58;;;;;;;0.30;0.30;;;;;;;;;;7389378;19;20128;-74
2022/10/18 03:43:24;;;;;;;0.30;0.30;;;;;;;;;;7383892;19;20120;-73
2022/10/18 03:45:49;;;;;;;0.30;0.30;;;;;;;;;;7388418;19;20184;-74
2022/10/18 03:48:14;;;;;;;0.30;0.30;;;;;;;;;;7388742;19;20125;-74
2022/10/18 03:50:40;;;;;;;1.58;1.48;;;;;;;;;;7386151;19;20136;-74
2022/10/18 03:53:06;;;;;;;0.30;0.30;;;;;;;;;;7383739;19;20499;-74
2022/10/18 03:55:31;;;;;;;0.30;0.30;;;;;;;;;;7386812;19;20152;-72
2022/10/18 03:57:57;;;;;;;0.30;0.30;;;;;;;;;;7378608;19;20162;-73
2022/10/18 04:00:22;;;;;;;0.30;0.30;;;;;;;;;;7385384;19;20121;-74
2022/10/18 04:02:47;;;;;;;0.60;0.60;;;;;;;;;;7387501;19;20544;-74
2022/10/18 04:05:13;;;;;;;1.25;1.15;;;;;;;;;;7389025;19;20137;-73
2022/10/18 04:07:38;;;;;;;0.30;0.30;;;;;;;;;;7387665;19;20140;-74
2022/10/18 04:10:04;;;;;;;0.30;0.30;;;;;;;;;;7388660;19;20136;-73
2022/10/18 04:12:29;;;;;;;0.30;0.30;;;;;;;;;;7387398;19;20145;-71
2022/10/18 04:14:54;;;;;;;0.40;0.40;;;;;;;;;;7384516;19;20144;-71
2022/10/18 04:17:20;;;;;;;0.30;0.30;;;;;;;;;;7389634;19;20515;-71
2022/10/18 04:19:45;;;;;;;0.30;0.30;;;;;;;;;;7388052;19;20129;-70
2022/10/18 04:22:11;;;;;;;0.30;0.30;;;;;;;;;;7391035;19;20125;-71
2022/10/18 04:24:36;;;;;;;0.20;0.20;;;;;;;;;;7389242;19;20272;-70
2022/10/18 04:27:03;;;;;;;0.30;0.30;;;;;;;;;;7388678;19;20143;-70
2022/10/18 04:29:28;;;;;;;0.30;0.30;;;;;;;;;;7380278;19;20128;-69
2022/10/18 04:31:54;;;;;;;0.20;0.20;;;;;;;;;;7385997;19;20208;-70
2022/10/18 04:34:19;;;;;;;0.30;0.30;;;;;;;;;;7384848;19;20149;-70
2022/10/18 04:36:44;;;;;;;0.30;0.30;;;;;;;;;;7376009;19;20792;-70
2022/10/18 04:39:10;;;;;;;0.30;0.30;;;;;;;;;;7383273;19;20152;-73
2022/10/18 04:41:35;;;;;;;0.30;0.30;;;;;;;;;;7383442;19;20125;-69
2022/10/18 04:44:00;;;;;;;0.30;0.30;;;;;;;;;;7384959;19;20725;-73
2022/10/18 04:46:26;;;;;;;0.30;0.30;;;;;;;;;;7387408;19;20144;-71
2022/10/18 04:48:51;;;;;;;0.30;0.30;;;;;;;;;;7379547;19;20125;-71
2022/10/18 04:51:16;;;;;;;0.22;0.22;;;;;;;;;;7375845;19;20211;-71
2022/10/18 04:53:41;;;;;;;3.28;0.60;;;;;;;;;;7377244;19;23379;-71
2022/10/18 04:56:07;;;;;;;0.30;0.30;;;;;;;;;;7377608;19;20179;-71
2022/10/18 04:58:32;;;;;;;0.30;0.30;;;;;;;;;;7379222;19;20124;-69
2022/10/18 05:00:58;;;;;;;0.30;0.30;;;;;;;;;;7386928;19;20157;-71
2022/10/18 05:03:23;;;;;;;0.20;0.20;;;;;;;;;;7377934;19;20169;-70
2022/10/18 05:05:48;;;;;;;0.30;0.30;;;;;;;;;;7378919;19;20248;-71
2022/10/18 05:08:14;;;;;;;0.30;0.30;;;;;;;;;;7382180;19;20786;-69
2022/10/18 05:10:39;;;;;;;0.30;0.30;;;;;;;;;;7381222;19;20467;-71
2022/10/18 05:13:05;;;;;;;0.30;0.30;;;;;;;;;;7382557;19;20230;-71
2022/10/18 05:15:30;;;;;;;0.30;0.30;;;;;;;;;;7375904;19;20187;-71
2022/10/18 05:17:55;;;;;;;0.40;0.40;;;;;;;;;;7386583;19;20621;-71
2022/10/18 05:20:20;;;;;;;0.30;0.30;;;;;;;;;;7393299;19;20136;-71
2022/10/18 05:22:46;;;;;;;0.30;0.30;;;;;;;;;;7392177;19;20128;-71
2022/10/18 05:25:11;;;;;;;0.30;0.30;;;;;;;;;;7392863;19;20160;-70
2022/10/18 05:27:36;;;;;;;0.30;0.30;;;;;;;;;;7392565;19;20128;-70
2022/10/18 05:30:02;;;;;;;0.30;0.30;;;;;;;;;;7390145;19;20132;-71
2022/10/18 05:32:28;;;;;;;0.30;0.30;;;;;;;;;;7390494;19;20460;-70
2022/10/18 05:34:53;;;;;;;0.20;0.20;;;;;;;;;;7389195;19;20155;-71
2022/10/18 05:37:19;;;;;;;0.30;0.30;;;;;;;;;;7388296;19;20137;-70
2022/10/18 05:39:44;;;;;;;0.30;0.30;;;;;;;;;;7393781;19;20156;-70
2022/10/18 05:42:09;;;;;;;0.30;0.30;;;;;;;;;;7395535;19;20136;-71
2022/10/18 05:44:34;;;;;;;0.50;0.50;;;;;;;;;;7394188;19;20149;-71
2022/10/18 05:47:00;;;;;;;0.30;0.30;;;;;;;;;;7393228;19;20141;-71
2022/10/18 05:49:25;;;;;;;0.30;0.30;;;;;;;;;;7394306;19;20165;-71
2022/10/18 05:51:50;;;;;;;0.30;0.30;;;;;;;;;;7394011;19;20520;-70
2022/10/18 05:54:16;;;;;;;0.40;0.40;;;;;;;;;;7395139;19;20610;-71
2022/10/18 05:56:41;;;;;;;0.30;0.30;;;;;;;;;;7392232;19;20505;-70
2022/10/18 05:59:10;;;;;;;0.30;0.30;;;;;;;;;;7386025;19;20137;-70
2022/10/18 06:01:40;;;;;;;0.20;0.20;;;;;;;;;;7388702;19;20140;-71
2022/10/18 06:04:05;;;;;;;0.30;0.30;;;;;;;;;;7390609;19;20168;-70
2022/10/18 06:06:31;;;;;;;0.20;0.20;;;;;;;;;;7390955;19;20160;-71
2022/10/18 06:08:57;;;;;;;0.30;0.30;;;;;;;;;;7392585;19;20613;-70
2022/10/18 06:11:22;;;;;;;0.30;0.30;;;;;;;;;;7387801;19;20477;-71
2022/10/18 06:13:49;;;;;;;0.30;0.30;;;;;;;;;;7390986;19;20534;-71
2022/10/18 06:16:16;;;;;;;0.20;0.20;;;;;;;;;;7386379;19;20193;-71
2022/10/18 06:18:42;;;;;;;0.30;0.30;;;;;;;;;;7388470;19;20125;-69
2022/10/18 06:21:07;;;;;;;0.30;0.30;;;;;;;;;;7387116;19;20127;-71
2022/10/18 06:23:33;;;;;;;0.30;0.30;;;;;;;;;;7392019;19;20123;-71
2022/10/18 06:26:00;;;;;;;0.30;0.30;;;;;;;;;;7389030;19;20186;-71
2022/10/18 06:28:26;;;;;;;0.30;0.30;;;;;;;;;;7384159;19;20589;-71
2022/10/18 06:30:51;;;;;;;0.30;0.30;;;;;;;;;;7387893;19;20142;-71
2022/10/18 06:33:16;;;;;;;0.30;0.30;;;;;;;;;;7389146;19;20492;-72
2022/10/18 06:35:41;;;;;;;0.30;0.30;;;;;;;;;;7388154;19;20181;-71
2022/10/18 06:38:07;;;;;;;0.20;0.20;;;;;;;;;;7391328;19;20148;-71
2022/10/18 06:40:36;;;;;;;0.30;0.30;;;;;;;;;;7389155;19;20125;-69
2022/10/18 06:43:05;;;;;;;0.30;0.30;;;;;;;;;;7390420;19;20125;-71
2022/10/18 06:45:31;;;;;;;0.30;0.30;;;;;;;;;;7388731;19;20176;-69
2022/10/18 06:47:57;;;;;;;0.40;0.40;;;;;;;;;;7388839;19;20204;-71
2022/10/18 06:50:22;;;;;;;0.30;0.30;;;;;;;;;;7386778;19;20654;-71
2022/10/18 06:52:50;;;;;;;0.20;0.20;;;;;;;;;;7382575;19;20209;-71
2022/10/18 06:55:15;;;;;;;0.30;0.30;;;;;;;;;;7387364;19;20152;-69
2022/10/18 06:57:40;;;;;;;0.30;0.30;;;;;;;;;;7389447;19;20482;-70
2022/10/18 07:00:06;;;;;;;0.30;0.30;;;;;;;;;;7390344;19;20173;-71
2022/10/18 07:02:32;;;;;;;0.30;0.30;;;;;;;;;;7391618;19;20135;-71
2022/10/18 07:04:57;;;;;;;0.60;0.60;;;;;;;;;;7390843;19;20546;-70
2022/10/18 07:07:22;;;;;;;0.30;0.30;;;;;;;;;;7383067;19;20149;-70
2022/10/18 07:09:48;;;;;;;0.30;0.30;;;;;;;;;;7378145;19;20121;-70
2022/10/18 07:12:16;;;;;;;0.30;0.30;;;;;;;;;;7389837;19;20188;-70
2022/10/18 07:14:41;;;;;;;0.20;0.20;;;;;;;;;;7389864;19;20140;-70
2022/10/18 07:17:07;;;;;;;0.30;0.30;;;;;;;;;;7390611;19;20646;-70
2022/10/18 07:19:32;;;;;;;0.30;0.30;;;;;;;;;;7390424;19;20442;-70
2022/10/18 07:21:57;;;;;;;0.30;0.30;;;;;;;;;;7382608;19;20124;-70
2022/10/18 07:24:23;;;;;;;0.30;0.30;;;;;;;;;;7388132;19;21009;-70
2022/10/18 07:26:48;;;;;;;0.20;0.20;;;;;;;;;;7389003;19;20117;-70
2022/10/18 07:29:13;;;;;;;0.20;0.20;;;;;;;;;;7386881;19;20189;-70
2022/10/18 07:31:39;;;;;;;0.20;0.20;;;;;;;;;;7386725;19;20125;-70
2022/10/18 07:34:06;;;;;;;0.30;0.30;;;;;;;;;;7388792;19;20595;-70
2022/10/18 07:36:31;;;;;;;0.52;0.52;;;;;;;;;;7388183;19;20795;-70
2022/10/18 07:38:58;;;;;;;0.85;0.65;;;;;;;;;;7387843;19;20148;-70
2022/10/18 07:41:23;;;;;;;0.40;0.40;;;;;;;;;;7386558;19;20559;-70
2022/10/18 07:43:50;;;;;;;0.35;0.35;;;;;;;;;;7381059;19;20603;-70
2022/10/18 07:46:16;;;;;;;0.43;0.43;;;;;;;;;;7375394;19;20155;-70
2022/10/18 07:48:41;;;;;;;0.30;0.30;;;;;;;;;;7379590;19;20531;-70
2022/10/18 07:51:08;;;;;;;0.30;0.30;;;;;;;;;;7379859;19;20125;-70
2022/10/18 07:53:33;;;;;;;0.30;0.30;;;;;;;;;;7381848;19;20121;-70
2022/10/18 07:55:59;;;;;;;0.30;0.30;;;;;;;;;;7370916;19;20217;-71
2022/10/18 07:58:26;;;;;;;0.30;0.30;;;;;;;;;;7373168;19;20149;-70
2022/10/18 08:00:51;;;;;;;0.50;0.50;;;;;;;;;;7374513;19;20494;-70
2022/10/18 08:03:17;;;;;;;0.30;0.30;;;;;;;;;;7380505;19;20125;-71
2022/10/18 08:05:42;;;;;;;0.20;0.20;;;;;;;;;;7369286;19;20235;-70
2022/10/18 08:08:07;;;;;;;0.30;0.30;;;;;;;;;;7369467;19;20148;-69
2022/10/18 08:10:34;;;;;;;0.30;0.30;;;;;;;;;;7370909;19;20237;-71
2022/10/18 08:12:59;;;;;;;0.32;0.32;;;;;;;;;;7376806;19;20653;-71
2022/10/18 08:15:24;;;;;;;0.20;0.20;;;;;;;;;;7370492;19;20177;-74
2022/10/18 08:17:50;;;;;;;0.30;0.30;;;;;;;;;;7375782;19;20208;-75
2022/10/18 08:20:16;;;;;;;0.30;0.30;;;;;;;;;;7373741;19;20137;-75
2022/10/18 08:22:41;;;;;;;0.30;0.30;;;;;;;;;;7374250;19;20149;-74
2022/10/18 08:25:06;;;;;;;0.20;0.20;;;;;;;;;;7380414;19;20153;-74
2022/10/18 08:27:32;;;;;;;0.30;0.30;;;;;;;;;;7367468;19;20841;-76
2022/10/18 08:29:58;;;;;;;0.30;0.30;;;;;;;;;;7374911;19;20445;-75
2022/10/18 08:32:24;;;;;;;0.20;0.20;;;;;;;;;;7380388;19;20125;-76
2022/10/18 08:34:50;;;;;;;0.30;0.30;;;;;;;;;;7380353;19;20235;-76
2022/10/18 08:37:15;;;;;;;0.20;0.20;;;;;;;;;;7381254;19;20608;-75
2022/10/18 08:39:40;;;;;;;0.28;0.28;;;;;;;;;;7381522;19;20140;-74
2022/10/18 08:42:06;;;;;;;0.20;0.20;;;;;;;;;;7383496;19;20140;-76
2022/10/18 08:44:31;;;;;;;0.30;0.30;;;;;;;;;;7382341;19;20639;-75
2022/10/18 08:46:59;;;;;;;0.30;0.30;;;;;;;;;;7382274;19;20129;-74
2022/10/18 08:49:46;;;;;;;0.30;0.30;;;;;;;;;;7380938;19;20149;-75
2022/10/18 08:52:31;;;;;;;0.40;0.40;;;;;;;;;;7383461;19;20136;-75
2022/10/18 08:55:21;;;;;;;0.35;0.35;;;;;;;;;;7366670;19;20201;-74
2022/10/18 08:57:48;;;;;;;0.22;0.22;;;;;;;;;;7365037;19;20144;-75
2022/10/18 09:00:15;;;;;;;0.35;0.35;;;;;;;;;;7352967;19;20638;-76
2022/10/18 09:02:55;;;;;;;0.30;0.30;;;;;;;;;;7377976;19;20133;-75
2022/10/18 09:05:40;;;;;;;0.30;0.30;;;;;;;;;;7376082;19;20191;-75
2022/10/18 09:08:26;;;;;;;0.30;0.30;;;;;;;;;;7384684;19;20150;-75
2022/10/18 09:11:19;;;;;;;0.20;0.20;;;;;;;;;;7380247;19;20683;-73
2022/10/18 09:13:50;;;;;;;0.30;0.30;;;;;;;;;;7393434;19;20542;-73
2022/10/18 09:16:23;;;;;;;0.30;0.30;;;;;;;;;;7389894;19;20169;-74
2022/10/18 09:19:15;;;;;;;0.30;0.30;;;;;;;;;;7392674;19;20220;-73
2022/10/18 09:21:54;;;;;;;0.45;0.45;;;;;;;;;;7385353;19;20125;-73
2022/10/18 09:24:19;;;;;;;0.85;0.80;;;;;;;;;;7391192;19;20558;-73
2022/10/18 09:26:47;;;;;;;0.65;0.65;;;;;;;;;;7392336;19;20632;-73
2022/10/18 09:29:49;;;;;;;0.30;0.30;;;;;;;;;;7384523;19;20205;-73
2022/10/18 09:32:26;;;;;;;0.30;0.30;;;;;;;;;;7387113;19;20160;-74
2022/10/18 09:35:10;;;;;;;0.30;0.30;;;;;;;;;;7386955;19;20193;-73
2022/10/18 09:37:36;;;;;;;0.30;0.30;;;;;;;;;;7383241;19;20140;-72
2022/10/18 09:40:11;;;;;;;0.30;0.30;;;;;;;;;;7376982;19;20133;-73
2022/10/18 09:42:40;;;;;;;0.30;0.30;;;;;;;;;;7387259;19;20133;-73
2022/10/18 09:45:19;;;;;;;0.30;0.30;;;;;;;;;;7391395;19;20627;-73
2022/10/18 09:47:56;;;;;;;0.70;0.70;;;;;;;;;;7392475;19;20116;-74
2022/10/18 09:50:28;;;;;;;0.30;0.30;;;;;;;;;;7389600;19;20697;-73
2022/10/18 09:53:06;;;;;;;0.40;0.40;;;;;;;;;;7390687;19;20148;-73
2022/10/18 09:55:35;;;;;;;0.50;0.50;;;;;;;;;;7391832;19;20232;-73
2022/10/18 09:58:01;;;;;;;0.52;0.52;;;;;;;;;;7383934;19;20216;-73
2022/10/18 10:00:45;;;;;;;0.30;0.30;;;;;;;;;;7391033;19;20141;-74
2022/10/18 10:03:14;;;;;;;0.40;0.40;;;;;;;;;;7386747;19;20642;-73
2022/10/18 10:05:40;;;;;;;0.38;0.38;;;;;;;;;;7383067;19;20155;-76
2022/10/18 10:08:05;;;;;;;0.30;0.30;;;;;;;;;;7389627;19;20486;-74
2022/10/18 10:10:32;;;;;;;0.30;0.30;;;;;;;;;;7384720;19;20148;-76
2022/10/18 10:13:16;;;;;;;0.30;0.30;;;;;;;;;;7390207;19;20137;-75
2022/10/18 10:15:51;;;;;;;0.55;0.55;;;;;;;;;;7398897;19;20145;-76
2022/10/18 10:18:19;;;;;;;0.57;0.57;;;;;;;;;;7395628;19;20639;-75
2022/10/18 10:20:47;;;;;;;0.30;0.30;;;;;;;;;;7390732;19;20153;-76
2022/10/18 10:23:24;;;;;;;0.30;0.30;;;;;;;;;;7388303;19;20144;-76
2022/10/18 10:25:58;;;;;;;0.30;0.30;;;;;;;;;;7387024;19;20196;-76
2022/10/18 10:28:27;;;;;;;0.20;0.20;;;;;;;;;;7385163;19;20193;-76
2022/10/18 10:30:53;;;;;;;0.30;0.30;;;;;;;;;;7379524;19;20125;-75
2022/10/18 10:33:37;;;;;;;0.43;0.43;;;;;;;;;;7386468;19;20178;-74
2022/10/18 10:36:05;;;;;;;0.35;0.35;;;;;;;;;;7392445;19;21076;-73
2022/10/18 10:38:31;;;;;;;0.30;0.30;;;;;;;;;;7394660;19;20125;-73
2022/10/18 10:40:57;;;;;;;0.52;0.52;;;;;;;;;;7390321;19;20144;-73
2022/10/18 10:43:25;;;;;;;0.20;0.20;;;;;;;;;;7387737;19;20129;-73
2022/10/18 10:46:21;;;;;;;0.70;0.70;;;;;;;;;;7380245;19;20172;-73
2022/10/18 10:48:55;;;;;;;1.10;0.57;;;;;;;;;;7384052;19;20568;-73
2022/10/18 10:51:38;;;;;;;0.55;0.55;;;;;;;;;;7382811;19;20140;-73
2022/10/18 10:54:10;;;;;;;0.30;0.30;;;;;;;;;;7387405;19;20129;-73
2022/10/18 10:56:37;;;;;;;0.47;0.47;;;;;;;;;;7389086;19;20121;-73
2022/10/18 10:59:12;;;;;;;0.40;0.40;;;;;;;;;;7389896;19;20125;-73
2022/10/18 11:01:37;;;;;;;0.30;0.30;;;;;;;;;;7382722;19;20608;-72
2022/10/18 11:04:26;;;;;;;0.40;0.40;;;;;;;;;;7384665;19;20143;-72
2022/10/18 11:07:20;;;;;;;0.50;0.50;;;;;;;;;;7390523;19;20125;-72
2022/10/18 11:10:12;;;;;;;0.40;0.40;;;;;;;;;;7384613;19;20125;-73
2022/10/18 11:12:37;;;;;;;0.75;0.75;;;;;;;;;;7380256;19;20121;-72
2022/10/18 11:15:15;;;;;;;0.50;0.50;;;;;;;;;;7372155;19;20536;-72
2022/10/18 11:18:18;;;;;;;0.32;0.32;;;;;;;;;;7386728;19;20121;-72
2022/10/18 11:20:47;;;;;;;0.70;0.65;;;;;;;;;;7382089;19;20124;-72
2022/10/18 11:23:14;;;;;;;0.35;0.35;;;;;;;;;;7379083;19;20113;-72
2022/10/18 11:26:04;;;;;;;0.80;0.70;;;;;;;;;;7382040;19;20564;-72
2022/10/18 11:28:37;;;;;;;1.08;0.70;;;;;;;;;;7387777;19;20532;-72
2022/10/18 11:31:26;;;;;;;0.30;0.30;;;;;;;;;;7383431;19;20125;-72
2022/10/18 11:34:01;;;;;;;0.55;0.55;;;;;;;;;;7385803;19;20120;-72
2022/10/18 11:36:40;;;;;;;0.90;0.80;;;;;;;;;;7379225;19;20121;-72
2022/10/18 11:39:18;;;;;;;0.30;0.30;;;;;;;;;;7383976;19;20125;-73
2022/10/18 11:42:05;;;;;;;1.90;0.77;;;;;;;;;;7382138;19;20120;-72
2022/10/18 11:44:43;;;;;;;0.95;0.93;;;;;;;;;;7381648;19;20165;-72
2022/10/18 11:47:31;;;;;;;0.20;0.20;;;;;;;;;;7384526;19;20120;-73
2022/10/18 11:50:03;;;;;;;0.30;0.30;;;;;;;;;;7379637;19;20474;-73
2022/10/18 11:52:42;;;;;;;0.30;0.30;;;;;;;;;;7377682;19;20198;-73
2022/10/18 11:55:33;;;;;;;3.90;1.33;;;;;;;;;;7380471;19;20634;-72
2022/10/18 11:58:03;;;;;;;0.30;0.30;;;;;;;;;;7382805;19;20488;-72
2022/10/18 12:00:39;;;;;;;0.50;0.50;;;;;;;;;;7381090;19;20621;-73
2022/10/18 12:03:32;;;;;;;4.35;0.98;;;;;;;;;;7381081;19;20124;-73
2022/10/18 12:06:02;;;;;;;0.45;0.45;;;;;;;;;;7378720;19;20575;-73
2022/10/18 12:08:47;;;;;;;0.30;0.30;;;;;;;;;;7380514;19;20148;-72
2022/10/18 12:11:22;;;;;;;0.50;0.50;;;;;;;;;;7380636;19;20128;-72
2022/10/18 12:13:51;;;;;;;0.35;0.35;;;;;;;;;;7378725;19;20113;-73
2022/10/18 12:16:20;;;;;;;0.40;0.40;;;;;;;;;;7373953;19;20148;-72
2022/10/18 12:18:57;;;;;;;0.57;0.57;;;;;;;;;;7378621;19;21250;-72
2022/10/18 12:21:25;;;;;;;0.40;0.40;;;;;;;;;;7374174;19;20132;-72
2022/10/18 12:24:10;;;;;;;0.55;0.55;;;;;;;;;;7381690;19;20478;-72
2022/10/18 12:26:36;;;;;;;0.60;0.60;;;;;;;;;;7377468;19;20637;-72
2022/10/18 12:29:23;;;;;;;1.05;0.95;;;;;;;;;;7372219;19;20129;-73
2022/10/18 12:31:51;;;;;;;0.50;0.50;;;;;;;;;;7379015;19;20133;-73
2022/10/18 12:34:22;;;;;;;0.43;0.43;;;;;;;;;;7377957;19;20136;-73
2022/10/18 12:37:06;;;;;;;0.60;0.60;;;;;;;;;;7379559;19;20500;-73
2022/10/18 12:39:37;;;;;;;0.38;0.38;;;;;;;;;;7381174;19;20129;-73
2022/10/18 12:42:02;;;;;;;0.40;0.40;;;;;;;;;;7380305;19;20216;-73
2022/10/18 12:44:33;;;;;;;0.30;0.30;;;;;;;;;;7377676;19;20586;-73
2022/10/18 12:47:00;;;;;;;0.40;0.40;;;;;;;;;;7378704;19;20117;-73
2022/10/18 12:49:35;;;;;;;0.40;0.40;;;;;;;;;;7384755;19;20136;-73
2022/10/18 12:52:06;;;;;;;0.50;0.50;;;;;;;;;;7382637;19;20622;-73
2022/10/18 12:55:02;;;;;;;0.50;0.50;;;;;;;;;;7387829;19;20149;-73
2022/10/18 12:57:53;;;;;;;0.50;0.50;;;;;;;;;;7384276;19;20134;-73
2022/10/18 13:00:30;;;;;;;0.40;0.40;;;;;;;;;;7385617;19;20144;-73
2022/10/18 13:03:19;;;;;;;0.40;0.40;;;;;;;;;;7390407;19;20116;-73
2022/10/18 13:05:49;;;;;;;0.43;0.43;;;;;;;;;;7386238;19;20172;-72
2022/10/18 13:08:26;;;;;;;0.50;0.50;;;;;;;;;;7390477;19;20133;-72
2022/10/18 13:11:07;;;;;;;0.60;0.60;;;;;;;;;;7385242;19;20610;-72
2022/10/18 13:13:41;;;;;;;1.13;0.57;;;;;;;;;;7383664;19;20127;-73
2022/10/18 13:16:21;;;;;;;0.40;0.40;;;;;;;;;;7379333;19;20258;-73
2022/10/18 13:18:57;;;;;;;0.60;0.60;;;;;;;;;;7386786;19;20163;-73
2022/10/18 13:21:28;;;;;;;0.40;0.40;;;;;;;;;;7377281;19;20120;-73
2022/10/18 13:23:53;;;;;;;0.55;0.55;;;;;;;;;;7387379;19;20123;-73
2022/10/18 13:26:24;;;;;;;0.40;0.40;;;;;;;;;;7383650;19;20149;-74
2022/10/18 13:29:21;;;;;;;0.40;0.40;;;;;;;;;;7382089;19;20382;-73
2022/10/18 13:32:06;;;;;;;1.00;0.60;;;;;;;;;;7381638;19;20133;-73
2022/10/18 13:34:36;;;;;;;0.55;0.55;;;;;;;;;;7389135;19;20176;-73
2022/10/18 13:37:04;;;;;;;0.82;0.82;;;;;;;;;;7379649;19;20125;-73
2022/10/18 13:39:31;;;;;;;0.82;0.82;;;;;;;;;;7386556;19;20135;-73
2022/10/18 13:41:56;;;;;;;0.40;0.40;;;;;;;;;;7385537;19;20132;-73
2022/10/18 13:44:27;;;;;;;0.50;0.50;;;;;;;;;;7388790;19;20137;-73
2022/10/18 13:46:55;;;;;;;0.50;0.50;;;;;;;;;;7383071;19;20144;-73
2022/10/18 13:49:36;;;;;;;0.40;0.40;;;;;;;;;;7389549;19;20121;-73
2022/10/18 13:52:01;;;;;;;0.95;0.95;;;;;;;;;;7386836;19;20132;-73
2022/10/18 13:54:48;;;;;;;0.57;0.57;;;;;;;;;;7390712;19;20156;-72
2022/10/18 13:57:32;;;;;;;0.70;0.70;;;;;;;;;;7386495;19;20124;-72
2022/10/18 14:00:06;;;;;;;0.30;0.30;;;;;;;;;;7382094;19;20133;-72
2022/10/18 14:03:08;;;;;;;0.30;0.30;;;;;;;;;;7386708;19;20654;-72
2022/10/18 14:05:55;;;;;;;0.40;0.40;;;;;;;;;;7382131;19;20152;-72
2022/10/18 14:08:28;;;;;;;0.50;0.50;;;;;;;;;;7386016;19;20125;-72
2022/10/18 14:10:59;;;;;;;0.35;0.35;;;;;;;;;;7381286;19;20556;-72
2022/10/18 14:13:30;;;;;;;0.40;0.40;;;;;;;;;;7382670;19;20602;-72
2022/10/18 14:16:03;;;;;;;0.30;0.30;;;;;;;;;;7381581;19;20212;-72
2022/10/18 14:18:34;;;;;;;0.45;0.45;;;;;;;;;;7382428;19;20516;-69
2022/10/18 14:21:06;;;;;;;0.30;0.30;;;;;;;;;;7366610;19;20741;-70
2022/10/18 14:23:34;;;;;;;0.30;0.30;;;;;;;;;;7368511;19;20129;-71
2022/10/18 14:26:19;;;;;;;0.40;0.40;;;;;;;;;;7365876;19;20141;-70
2022/10/18 14:29:04;;;;;;;0.47;0.47;;;;;;;;;;7371371;19;20136;-70
2022/10/18 14:31:29;;;;;;;0.38;0.38;;;;;;;;;;7358007;19;20147;-70
2022/10/18 14:33:56;;;;;;;0.43;0.43;;;;;;;;;;7373571;19;20184;-70
2022/10/18 14:36:24;;;;;;;0.40;0.40;;;;;;;;;;7373304;19;20674;-70
2022/10/18 14:38:50;;;;;;;0.30;0.30;;;;;;;;;;7369425;19;20125;-70
2022/10/18 14:41:21;;;;;;;0.30;0.30;;;;;;;;;;7373330;19;20184;-70
2022/10/18 14:43:47;;;;;;;0.30;0.30;;;;;;;;;;7373867;19;20125;-70
2022/10/18 14:46:25;;;;;;;0.30;0.30;;;;;;;;;;7362062;19;20155;-70
2022/10/18 14:48:59;;;;;;;0.30;0.30;;;;;;;;;;7374595;19;20133;-70
2022/10/18 14:51:26;;;;;;;0.30;0.30;;;;;;;;;;7372523;19;20133;-70
2022/10/18 14:53:51;;;;;;;0.77;0.60;;;;;;;;;;7376052;19;20129;-70
2022/10/18 14:56:28;;;;;;;0.40;0.40;;;;;;;;;;7377849;19;20160;-70
2022/10/18 14:58:55;;;;;;;0.30;0.30;;;;;;;;;;7379988;19;20117;-70
2022/10/18 15:01:23;;;;;;;0.30;0.30;;;;;;;;;;7378138;19;20125;-70
2022/10/18 15:03:49;;;;;;;0.52;0.52;;;;;;;;;;7381985;19;20121;-70